createdAt,value
2023-01-27T00:01:35.533Z,11.28
2023-01-27T00:04:06.538Z,10.98
2023-01-27T00:06:35.685Z,12.07
2023-01-27T00:09:03.899Z,11.20
2023-01-27T00:11:50.465Z,13.15
2023-01-27T00:14:18.375Z,11.70
2023-01-27T00:16:46.201Z,11.45
2023-01-27T00:19:14.821Z,11.05
2023-01-27T00:22:00.734Z,12.45
2023-01-27T00:24:37.931Z,11.63
2023-01-27T00:27:10.299Z,11.57
2023-01-27T00:29:42.525Z,11.50
2023-01-27T00:32:29.016Z,10.15
2023-01-27T00:34:59.631Z,11.00
2023-01-27T00:37:28.322Z,11.50
2023-01-27T00:39:56.162Z,10.80
2023-01-27T00:42:25.314Z,12.40
2023-01-27T00:45:11.432Z,11.88
2023-01-27T00:47:40.066Z,11.48
2023-01-27T00:50:09.617Z,10.75
2023-01-27T00:52:37.329Z,11.83
2023-01-27T00:55:05.830Z,11.80
2023-01-27T00:57:33.683Z,11.90
2023-01-27T01:00:01.395Z,11.85
2023-01-27T01:02:30.783Z,12.82
2023-01-27T01:05:01.854Z,10.72
2023-01-27T01:07:29.937Z,11.35
2023-01-27T01:09:57.488Z,11.93
2023-01-27T01:12:25.217Z,11.88
2023-01-27T01:14:53.300Z,12.70
2023-01-27T01:17:25.283Z,12.03
2023-01-27T01:19:53.042Z,11.53
2023-01-27T01:22:20.884Z,11.50
2023-01-27T01:24:48.499Z,12.10
2023-01-27T01:27:19.283Z,12.60
2023-01-27T01:29:46.741Z,11.45
2023-01-27T01:32:14.725Z,11.95
2023-01-27T01:34:42.658Z,11.78
2023-01-27T01:37:10.030Z,11.90
2023-01-27T01:39:38.959Z,11.28
2023-01-27T01:42:06.780Z,11.55
2023-01-27T01:44:34.304Z,12.10
2023-01-27T01:47:10.090Z,12.75
2023-01-27T01:49:40.879Z,11.93
2023-01-27T01:52:13.129Z,12.20
2023-01-27T01:54:44.675Z,11.90
2023-01-27T01:57:24.676Z,11.93
2023-01-27T01:59:56.219Z,12.45
2023-01-27T02:02:26.405Z,13.00
2023-01-27T02:05:04.184Z,12.07
2023-01-27T02:07:38.466Z,12.30
2023-01-27T02:10:09.689Z,12.73
2023-01-27T02:12:37.907Z,12.75
2023-01-27T02:15:09.387Z,12.45
2023-01-27T02:17:37.710Z,12.40
2023-01-27T02:20:09.288Z,12.15
2023-01-27T02:23:03.239Z,13.05
2023-01-27T02:25:48.742Z,12.10
2023-01-27T02:28:16.218Z,13.05
2023-01-27T02:30:43.783Z,13.08
2023-01-27T02:33:15.507Z,12.33
2023-01-27T02:35:50.269Z,13.08
2023-01-27T02:40:53.182Z,12.43
2023-01-27T02:43:21.013Z,12.47
2023-01-27T02:45:57.228Z,13.35
2023-01-27T02:48:25.643Z,12.98
2023-01-27T02:50:53.183Z,12.90
2023-01-27T02:53:20.910Z,14.60
2023-01-27T02:55:50.343Z,13.38
2023-01-27T02:58:17.617Z,14.05
2023-01-27T03:00:49.681Z,13.20
2023-01-27T03:03:17.522Z,13.15
2023-01-27T03:05:46.399Z,13.95
2023-01-27T03:08:14.139Z,14.18
2023-01-27T03:10:43.750Z,13.32
2023-01-27T03:13:12.076Z,11.80
2023-01-27T03:15:59.098Z,12.50
2023-01-27T03:18:27.088Z,13.45
2023-01-27T03:20:58.553Z,12.93
2023-01-27T03:23:25.965Z,13.72
2023-01-27T03:25:54.602Z,12.63
2023-01-27T03:28:22.209Z,12.82
2023-01-27T03:31:04.683Z,13.10
2023-01-27T03:33:34.857Z,11.95
2023-01-27T03:36:23.709Z,12.60
2023-01-27T03:39:10.669Z,12.20
2023-01-27T03:41:56.614Z,13.22
2023-01-27T03:44:44.431Z,11.93
2023-01-27T03:47:12.178Z,13.53
2023-01-27T03:49:40.130Z,13.05
2023-01-27T03:52:08.778Z,12.80
2023-01-27T03:54:36.668Z,13.65
2023-01-27T03:57:06.592Z,12.93
2023-01-27T03:59:35.613Z,13.03
2023-01-27T04:02:21.747Z,13.83
2023-01-27T04:05:25.865Z,12.63
2023-01-27T04:07:53.404Z,13.00
2023-01-27T04:10:21.001Z,13.18
2023-01-27T04:12:49.352Z,12.58
2023-01-27T04:15:17.776Z,12.37
2023-01-27T04:17:46.754Z,12.40
2023-01-27T04:20:15.347Z,11.95
2023-01-27T04:22:42.757Z,12.33
2023-01-27T04:25:32.168Z,12.35
2023-01-27T04:28:03.348Z,12.55
2023-01-27T04:30:38.329Z,12.73
2023-01-27T04:35:38.830Z,11.57
2023-01-27T04:38:12.883Z,13.08
2023-01-27T04:40:58.464Z,10.72
2023-01-27T04:43:34.280Z,10.05
2023-01-27T04:46:03.132Z,9.55
2023-01-27T04:48:30.910Z,8.95
2023-01-27T04:50:58.699Z,8.90
2023-01-27T04:53:26.732Z,8.95
2023-01-27T04:55:58.342Z,9.35
2023-01-27T04:58:25.936Z,8.83
2023-01-27T05:00:53.594Z,9.30
2023-01-27T05:03:21.167Z,8.35
2023-01-27T05:05:49.436Z,8.03
2023-01-27T05:08:17.825Z,9.05
2023-01-27T05:10:48.292Z,9.65
2023-01-27T05:13:18.859Z,9.53
2023-01-27T05:15:46.948Z,9.33
2023-01-27T05:18:15.550Z,9.28
2023-01-27T05:20:43.359Z,8.65
2023-01-27T05:23:29.183Z,8.35
2023-01-27T05:25:57.319Z,8.35
2023-01-27T05:28:29.258Z,8.28
2023-01-27T05:31:03.005Z,8.50
2023-01-27T05:33:31.205Z,9.15
2023-01-27T05:36:00.520Z,8.70
2023-01-27T05:38:28.779Z,9.05
2023-01-27T05:41:02.637Z,8.20
2023-01-27T05:43:32.298Z,8.78
2023-01-27T05:46:08.254Z,8.88
2023-01-27T05:48:42.570Z,8.85
2023-01-27T05:51:17.530Z,8.85
2023-01-27T05:53:45.609Z,9.10
2023-01-27T05:56:16.144Z,8.45
2023-01-27T05:58:44.480Z,8.30
2023-01-27T06:01:14.923Z,8.80
2023-01-27T06:03:43.806Z,8.33
2023-01-27T06:06:13.798Z,9.43
2023-01-27T06:08:48.104Z,7.92
2023-01-27T06:11:18.368Z,9.03
2023-01-27T06:13:47.342Z,7.72
2023-01-27T06:16:20.516Z,8.55
2023-01-27T06:18:49.369Z,9.23
2023-01-27T06:21:20.667Z,8.08
2023-01-27T06:23:48.760Z,8.05
2023-01-27T06:26:18.680Z,9.03
2023-01-27T06:28:47.402Z,9.00
2023-01-27T06:31:19.045Z,8.30
2023-01-27T06:33:46.894Z,9.15
2023-01-27T06:36:17.297Z,8.03
2023-01-27T06:38:45.457Z,8.08
2023-01-27T06:41:15.712Z,7.95
2023-01-27T06:43:43.084Z,8.10
2023-01-27T06:46:10.760Z,8.93
2023-01-27T06:48:38.534Z,9.18
2023-01-27T06:51:06.896Z,8.63
2023-01-27T06:53:36.430Z,9.03
2023-01-27T06:56:04.645Z,9.08
2023-01-27T06:58:34.284Z,9.13
2023-01-27T07:01:02.266Z,9.63
2023-01-27T07:03:30.243Z,10.05
2023-01-27T07:05:58.343Z,10.10
2023-01-27T07:08:26.078Z,10.18
2023-01-27T07:10:53.692Z,10.88
2023-01-27T07:13:21.447Z,10.10
2023-01-27T07:15:53.261Z,10.45
2023-01-27T07:18:21.408Z,9.98
2023-01-27T07:20:48.949Z,9.90
2023-01-27T07:23:16.656Z,10.45
2023-01-27T07:25:44.981Z,10.23
2023-01-27T07:28:36.372Z,10.90
2023-01-27T07:31:04.927Z,11.70
2023-01-27T07:33:32.937Z,10.65
2023-01-27T07:36:00.371Z,11.70
2023-01-27T07:38:28.059Z,9.50
2023-01-27T07:40:56.195Z,10.55
2023-01-27T07:43:25.225Z,10.90
2023-01-27T07:45:56.864Z,10.35
2023-01-27T07:48:44.393Z,9.28
2023-01-27T07:51:14.140Z,9.95
2023-01-27T07:53:43.289Z,9.85
2023-01-27T07:56:12.422Z,10.05
2023-01-27T07:58:41.704Z,10.48
2023-01-27T08:01:11.839Z,10.25
2023-01-27T08:03:41.304Z,9.65
2023-01-27T08:06:11.421Z,9.85
2023-01-27T08:08:39.735Z,8.80
2023-01-27T08:11:09.307Z,10.18
2023-01-27T08:13:37.523Z,9.15
2023-01-27T08:16:06.710Z,10.20
2023-01-27T08:18:34.492Z,9.63
2023-01-27T08:21:05.263Z,9.08
2023-01-27T08:23:33.310Z,9.38
2023-01-27T08:26:03.617Z,9.30
2023-01-27T08:28:33.327Z,8.95
2023-01-27T08:31:10.882Z,9.73
2023-01-27T08:33:40.035Z,8.65
2023-01-27T08:36:11.441Z,9.43
2023-01-27T08:38:40.552Z,9.15
2023-01-27T08:41:11.669Z,8.58
2023-01-27T08:43:40.333Z,9.90
2023-01-27T08:46:08.504Z,9.58
2023-01-27T08:48:37.139Z,9.93
2023-01-27T08:51:09.267Z,9.68
2023-01-27T08:53:37.494Z,10.18
2023-01-27T08:56:12.350Z,8.88
2023-01-27T08:58:40.786Z,10.35
2023-01-27T09:01:09.515Z,9.63
2023-01-27T09:03:38.083Z,9.90
2023-01-27T09:06:07.956Z,9.18
2023-01-27T09:08:36.512Z,9.50
2023-01-27T09:11:16.241Z,8.63
2023-01-27T09:13:45.920Z,8.53
2023-01-27T09:16:13.458Z,8.68
2023-01-27T09:18:42.900Z,8.38
2023-01-27T09:21:10.815Z,8.00
2023-01-27T09:23:38.372Z,7.78
2023-01-27T09:26:06.448Z,7.17
2023-01-27T09:28:34.308Z,6.78
2023-01-27T09:31:02.777Z,7.83
2023-01-27T09:33:30.696Z,8.00
2023-01-27T09:36:07.995Z,7.95
2023-01-27T09:38:42.824Z,8.00
2023-01-27T09:41:43.106Z,8.48
2023-01-27T09:44:34.684Z,8.53
2023-01-27T09:47:18.574Z,8.53
2023-01-27T09:49:50.687Z,9.10
2023-01-27T09:52:47.753Z,8.65
2023-01-27T09:55:21.471Z,7.80
2023-01-27T09:57:55.828Z,8.18
2023-01-27T10:00:29.974Z,8.55
2023-01-27T10:06:25.711Z,8.08
2023-01-27T10:09:03.061Z,9.63
2023-01-27T10:12:02.307Z,8.50
2023-01-27T10:15:11.112Z,8.98
2023-01-27T10:17:42.898Z,9.80
2023-01-27T10:20:26.766Z,9.28
2023-01-27T10:23:25.987Z,8.60
2023-01-27T10:26:15.929Z,9.23
2023-01-27T10:28:48.131Z,9.30
2023-01-27T10:31:31.738Z,8.98
2023-01-27T10:34:03.685Z,8.55
2023-01-27T10:36:51.219Z,8.18
2023-01-27T10:39:44.172Z,8.50
2023-01-27T10:42:27.894Z,7.67
2023-01-27T10:44:59.211Z,7.22
2023-01-27T10:47:39.801Z,6.97
2023-01-27T10:50:11.859Z,6.67
2023-01-27T10:52:43.559Z,6.97
2023-01-27T10:55:23.132Z,7.33
2023-01-27T10:58:20.370Z,7.83
2023-01-27T11:01:19.305Z,7.58
2023-01-27T11:03:33.633Z,8.13
2023-01-27T11:06:05.167Z,7.62
2023-01-27T11:08:36.367Z,7.45
2023-01-27T11:11:25.992Z,7.55
2023-01-27T11:14:00.965Z,7.90
2023-01-27T11:16:35.196Z,8.25
2023-01-27T11:19:07.036Z,8.23
2023-01-27T11:21:35.413Z,7.45
2023-01-27T11:24:15.916Z,8.05
2023-01-27T11:26:50.095Z,7.67
2023-01-27T11:29:34.498Z,7.67
2023-01-27T11:32:17.867Z,7.72
2023-01-27T11:35:06.158Z,8.63
2023-01-27T11:37:39.924Z,8.08
2023-01-27T11:40:20.741Z,8.70
2023-01-27T11:42:50.090Z,8.73
2023-01-27T11:45:21.393Z,9.15
2023-01-27T11:47:55.502Z,8.25
2023-01-27T11:50:25.181Z,8.48
2023-01-27T11:52:57.910Z,9.18
2023-01-27T11:55:29.678Z,8.90
2023-01-27T11:58:01.242Z,8.95
2023-01-27T12:00:48.489Z,8.63
2023-01-27T12:03:43.583Z,8.50
2023-01-27T12:06:20.749Z,9.53
2023-01-27T12:08:49.945Z,9.68
2023-01-27T12:11:26.939Z,9.53
2023-01-27T12:14:15.205Z,8.75
2023-01-27T12:16:51.518Z,10.18
2023-01-27T12:19:25.544Z,9.18
2023-01-27T12:21:57.293Z,9.25
2023-01-27T12:24:29.287Z,10.00
2023-01-27T12:27:16.912Z,9.45
2023-01-27T12:29:51.104Z,9.20
2023-01-27T12:32:23.340Z,9.13
2023-01-27T12:34:55.871Z,9.53
2023-01-27T12:37:30.022Z,9.68
2023-01-27T12:40:07.030Z,9.67
2023-01-27T12:42:43.763Z,10.03
2023-01-27T12:45:24.519Z,9.50
2023-01-27T12:47:58.133Z,9.83
2023-01-27T12:50:32.956Z,10.28
2023-01-27T12:53:13.253Z,9.33
2023-01-27T12:56:04.711Z,9.30
2023-01-27T12:58:42.520Z,11.05
2023-01-27T13:01:32.498Z,11.12
2023-01-27T13:04:07.245Z,9.88
2023-01-27T13:06:42.900Z,10.05
2023-01-27T13:09:29.326Z,9.20
2023-01-27T13:12:00.633Z,10.18
2023-01-27T13:14:30.898Z,10.38
2023-01-27T13:17:02.365Z,10.13
2023-01-27T13:19:43.438Z,9.53
2023-01-27T13:22:19.540Z,10.10
2023-01-27T13:24:51.315Z,9.98
2023-01-27T13:27:22.332Z,9.95
2023-01-27T13:30:05.671Z,9.40
2023-01-27T13:32:37.724Z,9.83
2023-01-27T13:35:17.833Z,9.25
2023-01-27T13:38:01.421Z,9.35
2023-01-27T13:40:33.530Z,9.75
2023-01-27T13:43:24.309Z,9.45
2023-01-27T13:46:04.873Z,9.55
2023-01-27T13:48:45.380Z,9.48
2023-01-27T13:51:16.850Z,9.35
2023-01-27T13:53:47.740Z,10.58
2023-01-27T13:56:26.579Z,9.03
2023-01-27T13:59:03.303Z,9.20
2023-01-27T14:01:44.456Z,11.00
2023-01-27T14:04:21.037Z,9.03
2023-01-27T14:07:19.493Z,9.53
2023-01-27T14:09:56.613Z,10.85
2023-01-27T14:12:47.238Z,10.28
2023-01-27T14:15:27.413Z,11.05
2023-01-27T14:18:00.257Z,10.40
2023-01-27T14:20:34.674Z,10.15
2023-01-27T14:23:25.227Z,11.05
2023-01-27T14:26:15.479Z,10.38
2023-01-27T14:29:02.535Z,10.25
2023-01-27T14:31:59.948Z,11.33
2023-01-27T14:34:40.909Z,9.98
2023-01-27T14:37:12.521Z,10.85
2023-01-27T14:39:49.815Z,10.23
2023-01-27T14:45:11.347Z,11.30
2023-01-27T14:48:04.233Z,10.68
2023-01-27T14:50:36.231Z,10.82
2023-01-27T14:56:15.759Z,10.40
2023-01-27T14:58:47.511Z,10.43
2023-01-27T15:01:31.158Z,12.05
2023-01-27T15:04:05.851Z,11.10
2023-01-27T15:06:46.147Z,11.10
2023-01-27T15:09:33.530Z,11.78
2023-01-27T15:12:10.768Z,11.33
2023-01-27T15:14:55.036Z,10.80
2023-01-27T15:17:49.993Z,11.50
2023-01-27T15:20:27.054Z,12.68
2023-01-27T15:23:13.838Z,11.55
2023-01-27T15:25:48.408Z,11.93
2023-01-27T15:31:07.114Z,11.08
2023-01-27T15:33:56.344Z,11.45
2023-01-27T15:36:33.940Z,12.65
2023-01-27T15:39:11.853Z,12.10
2023-01-27T15:42:01.594Z,11.95
2023-01-27T15:44:32.817Z,11.33
2023-01-27T15:47:10.867Z,13.25
2023-01-27T15:49:46.988Z,12.75
2023-01-27T15:52:18.793Z,12.00
2023-01-27T15:54:58.261Z,12.88
2023-01-27T15:57:29.380Z,11.83
2023-01-27T16:00:02.470Z,11.75
2023-01-27T16:02:33.330Z,12.55
2023-01-27T16:05:11.542Z,12.53
2023-01-27T16:07:39.886Z,11.97
2023-01-27T16:10:11.620Z,13.13
2023-01-27T16:12:44.496Z,13.48
2023-01-27T16:15:25.416Z,17.25
2023-01-27T16:18:03.061Z,18.70
2023-01-27T16:20:33.858Z,15.30
2023-01-27T16:23:05.434Z,14.33
2023-01-27T16:25:37.213Z,12.50
2023-01-27T16:28:21.288Z,12.50
2023-01-27T16:31:08.137Z,11.63
2023-01-27T16:33:42.407Z,10.75
2023-01-27T16:36:31.191Z,11.73
2023-01-27T16:39:06.923Z,12.07
2023-01-27T16:41:56.428Z,11.90
2023-01-27T16:44:41.086Z,11.78
2023-01-27T16:47:22.324Z,11.88
2023-01-27T16:49:51.680Z,11.57
2023-01-27T16:52:35.966Z,12.37
2023-01-27T16:55:02.283Z,11.95
2023-01-27T16:57:39.262Z,11.33
2023-01-27T17:00:24.469Z,12.10
2023-01-27T17:02:54.206Z,11.90
2023-01-27T17:05:22.968Z,12.58
2023-01-27T17:08:30.274Z,11.38
2023-01-27T17:11:00.900Z,12.68
2023-01-27T17:13:31.281Z,12.68
2023-01-27T17:16:01.669Z,12.70
2023-01-27T17:18:37.559Z,13.68
2023-01-27T17:21:01.187Z,12.58
2023-01-27T17:23:39.194Z,12.73
2023-01-27T17:26:18.849Z,12.85
2023-01-27T17:28:48.056Z,12.82
2023-01-27T17:31:25.275Z,13.32
2023-01-27T17:33:56.906Z,13.18
2023-01-27T17:36:25.996Z,13.35
2023-01-27T17:38:58.228Z,42.67
2023-01-27T17:41:46.034Z,20.72
2023-01-27T17:44:15.382Z,16.02
2023-01-27T17:46:43.008Z,13.20
2023-01-27T17:49:20.882Z,13.88
2023-01-27T17:51:59.074Z,13.38
2023-01-27T17:54:33.437Z,13.83
2023-01-27T17:57:08.588Z,14.25
2023-01-27T17:59:39.925Z,14.53
2023-01-27T18:02:29.761Z,15.23
2023-01-27T18:05:02.326Z,13.35
2023-01-27T18:07:31.928Z,14.25
2023-01-27T18:10:01.201Z,13.93
2023-01-27T18:12:35.018Z,14.18
2023-01-27T18:15:39.353Z,14.70
2023-01-27T18:18:26.114Z,13.93
2023-01-27T18:21:03.889Z,14.35
2023-01-27T18:23:45.642Z,14.25
2023-01-27T18:26:28.909Z,14.20
2023-01-27T18:29:03.312Z,14.18
2023-01-27T18:31:35.537Z,14.50
2023-01-27T18:34:11.314Z,14.53
2023-01-27T18:36:51.633Z,15.00
2023-01-27T18:39:32.185Z,14.10
2023-01-27T18:42:01.261Z,13.43
2023-01-27T18:44:37.414Z,14.50
2023-01-27T18:47:24.051Z,14.33
2023-01-27T18:50:05.092Z,12.90
2023-01-27T18:52:32.851Z,13.18
2023-01-27T18:55:19.931Z,13.88
2023-01-27T18:57:50.129Z,14.07
2023-01-27T19:00:20.637Z,14.25
2023-01-27T19:02:51.158Z,14.33
2023-01-27T19:05:33.968Z,14.25
2023-01-27T19:08:02.992Z,14.33
2023-01-27T19:10:32.645Z,14.70
2023-01-27T19:13:03.049Z,13.78
2023-01-27T19:15:33.933Z,13.32
2023-01-27T19:18:05.584Z,13.62
2023-01-27T19:20:33.955Z,13.75
2023-01-27T19:23:02.059Z,14.53
2023-01-27T19:25:31.567Z,13.28
2023-01-27T19:28:05.278Z,13.80
2023-01-27T19:30:37.925Z,13.83
2023-01-27T19:33:12.708Z,14.35
2023-01-27T19:38:23.351Z,12.88
2023-01-27T19:40:50.805Z,13.30
2023-01-27T19:43:21.951Z,14.45
2023-01-27T19:45:50.775Z,15.13
2023-01-27T19:48:38.082Z,12.55
2023-01-27T19:51:09.155Z,13.20
2023-01-27T19:53:36.705Z,12.37
2023-01-27T19:56:04.927Z,12.10
2023-01-27T19:58:35.341Z,12.33
2023-01-27T20:01:03.261Z,12.78
2023-01-27T20:03:31.455Z,11.38
2023-01-27T20:05:59.608Z,12.15
2023-01-27T20:08:32.192Z,12.65
2023-01-27T20:11:00.355Z,11.18
2023-01-27T20:13:27.940Z,11.97
2023-01-27T20:15:57.791Z,11.80
2023-01-27T20:18:26.898Z,11.75
2023-01-27T20:20:54.494Z,11.43
2023-01-27T20:23:21.903Z,12.28
2023-01-27T20:25:49.865Z,12.10
2023-01-27T20:28:17.510Z,11.65
2023-01-27T20:30:45.671Z,11.88
2023-01-27T20:33:14.670Z,10.72
2023-01-27T20:35:42.691Z,10.78
2023-01-27T20:38:10.254Z,10.35
2023-01-27T20:40:38.525Z,10.30
2023-01-27T20:43:14.403Z,10.48
2023-01-27T20:45:42.634Z,9.48
2023-01-27T20:48:12.172Z,10.45
2023-01-27T20:50:40.076Z,11.45
2023-01-27T20:53:08.494Z,10.58
2023-01-27T20:55:36.415Z,10.35
2023-01-27T20:58:03.989Z,10.08
2023-01-27T21:00:31.847Z,9.73
2023-01-27T21:03:01.436Z,10.50
2023-01-27T21:05:29.635Z,10.03
2023-01-27T21:07:57.022Z,9.55
2023-01-27T21:10:24.964Z,10.08
2023-01-27T21:12:53.007Z,10.30
2023-01-27T21:15:27.205Z,10.08
2023-01-27T21:17:55.268Z,10.43
2023-01-27T21:20:22.814Z,9.90
2023-01-27T21:22:50.598Z,10.23
2023-01-27T21:25:22.332Z,10.75
2023-01-27T21:27:50.096Z,11.22
2023-01-27T21:30:18.335Z,10.40
2023-01-27T21:32:46.172Z,11.53
2023-01-27T21:35:19.005Z,10.53
2023-01-27T21:37:46.380Z,11.28
2023-01-27T21:40:31.088Z,10.75
2023-01-27T21:43:17.545Z,10.70
2023-01-27T21:45:45.352Z,10.63
2023-01-27T21:48:13.040Z,10.90
2023-01-27T21:50:40.753Z,10.32
2023-01-27T21:53:10.561Z,9.80
2023-01-27T21:55:41.546Z,10.68
2023-01-27T21:58:09.040Z,11.50
2023-01-27T22:00:36.993Z,10.58
2023-01-27T22:03:05.120Z,9.75
2023-01-27T22:05:34.293Z,10.95
2023-01-27T22:08:06.520Z,9.83
2023-01-27T22:10:35.075Z,10.10
2023-01-27T22:13:04.439Z,10.90
2023-01-27T22:15:35.748Z,11.38
2023-01-27T22:18:03.953Z,9.60
2023-01-27T22:20:31.551Z,10.10
2023-01-27T22:22:59.822Z,10.70
2023-01-27T22:25:27.600Z,10.75
2023-01-27T22:27:55.425Z,10.35
2023-01-27T22:30:23.044Z,10.25
2023-01-27T22:32:50.501Z,11.10
2023-01-27T22:38:03.866Z,10.45
2023-01-27T22:40:32.028Z,11.18
2023-01-27T22:42:59.841Z,10.70
2023-01-27T22:45:47.837Z,10.93
2023-01-27T22:48:15.849Z,11.55
2023-01-27T22:50:45.021Z,11.55
2023-01-27T22:53:12.497Z,11.65
2023-01-27T22:55:40.181Z,10.90
2023-01-27T23:01:09.425Z,10.32
2023-01-27T23:03:36.750Z,10.35
2023-01-27T23:06:06.392Z,11.75
2023-01-27T23:08:35.326Z,11.48
2023-01-27T23:11:05.719Z,10.63
2023-01-27T23:13:34.248Z,10.72
2023-01-27T23:16:02.044Z,10.88
2023-01-27T23:18:31.120Z,10.65
2023-01-27T23:21:06.807Z,11.75
2023-01-27T23:23:35.842Z,11.12
2023-01-27T23:26:09.556Z,10.82
2023-01-27T23:28:38.653Z,10.65
2023-01-27T23:31:11.103Z,11.70
2023-01-27T23:33:44.001Z,10.28
2023-01-27T23:36:12.376Z,10.82
2023-01-27T23:38:39.988Z,11.20
2023-01-27T23:41:12.955Z,9.68
2023-01-27T23:43:40.601Z,10.63
2023-01-27T23:46:13.580Z,10.65
2023-01-27T23:48:43.844Z,10.48
2023-01-27T23:51:14.063Z,10.60
2023-01-27T23:53:49.582Z,10.00
2023-01-27T23:56:19.810Z,10.65
2023-01-27T23:58:48.153Z,9.90
